Time;durP1;ratioP1;P1;durP2;ratioP2;P2;SDS_P1;SDS_P2;PMS_P1;PMS_P2;Temp;Humidity;BMP_temperature;BMP_pressure;BME280_temperature;BME280_humidity;BME280_pressure;Samples;Min_cycle;Max_cycle;Signal;HPM_P1;HPM_P2
2021/04/26 00:01:45;;;;;;;2.40;1.30;;;;;;;;;;5054006;28;20865;-75
2021/04/26 00:04:12;;;;;;;5.20;1.73;;;;;;;;;;5053149;28;20382;-75
2021/04/26 00:06:49;;;;;;;2.20;1.40;;;;;;;;;;5053731;28;20405;-76
2021/04/26 00:09:15;;;;;;;8.00;1.90;;;;;;;;;;5053785;28;20383;-75
2021/04/26 00:11:43;;;;;;;5.20;1.23;;;;;;;;;;5053759;28;20471;-75
2021/04/26 00:14:18;;;;;;;2.33;1.47;;;;;;;;;;5053659;28;20383;-75
2021/04/26 00:17:06;;;;;;;2.20;1.53;;;6.00;1.00;;;;;;5053844;28;20386;-75
2021/04/26 00:19:32;;;;;;;5.03;1.60;;;6.00;1.00;;;;;;5053552;28;20406;-76
2021/04/26 00:22:00;;;;;;;10.03;2.10;;;;;;;;;;5053436;28;20402;-76
2021/04/26 00:24:54;;;;;;;2.70;1.60;;;6.00;1.00;;;;;;5053940;28;20382;-76
2021/04/26 00:27:24;;;;;;;2.10;1.00;;;;;;;;;;5053259;28;20413;-75
2021/04/26 00:30:01;;;;;;;3.27;1.60;;;6.10;1.00;;;;;;5053601;28;20740;-76
2021/04/26 00:32:27;;;;;;;2.08;1.63;;;;;;;;;;5053472;28;20505;-75
2021/04/26 00:34:54;;;;;;;3.03;1.30;;;;;;;;;;5053242;28;20498;-76
2021/04/26 00:37:21;;;;;;;4.67;1.77;;;;;;;;;;5053345;28;20386;-75
2021/04/26 00:39:47;;;;;;;5.33;1.60;;;;;;;;;;5033849;28;20865;-75
2021/04/26 00:42:13;;;;;;;6.55;1.88;;;;;;;;;;5049869;28;20860;-75
2021/04/26 00:45:01;;;;;;;2.83;1.50;;;6.10;1.00;;;;;;5051644;28;20172;-75
2021/04/26 00:47:27;;;;;;;6.23;2.13;;;;;;;;;;5057332;28;20414;-75
2021/04/26 00:49:53;;;;;;;3.27;1.70;;;;;;;;;;5057446;28;20403;-75
2021/04/26 00:52:42;;;;;;;3.27;1.50;;;;;;;;;;5057004;28;20382;-75
2021/04/26 00:55:13;;;;;;;6.38;2.00;;;5.90;1.00;;;;;;5056968;28;20382;-75
2021/04/26 00:57:39;;;;;;;3.63;1.55;;;;;;;;;;5056792;28;20176;-75
2021/04/26 01:00:08;;;;;;;7.33;2.27;;;5.80;1.00;;;;;;5056676;28;20244;-75
2021/04/26 01:02:49;;;;;;;6.20;1.93;;;;;;;;;;5057264;28;20520;-75
2021/04/26 01:05:36;;;;;;;1.57;1.00;;;5.70;1.00;;;;;;5057196;28;20379;-75
2021/04/26 01:08:12;;;;;;;2.60;1.38;;;;;;;;;;5056836;28;20409;-75
2021/04/26 01:10:39;;;;;;;4.38;1.58;;;5.60;1.00;;;;;;5056856;28;20178;-76
2021/04/26 01:13:35;;;;;;;14.33;1.60;;;5.50;1.00;;;;;;5056755;28;20160;-75
2021/04/26 01:16:39;;;;;;;4.75;1.70;;;5.40;1.00;;;;;;4995405;28;20767;-75
2021/04/26 01:19:50;;;;;;;2.67;1.33;;;5.30;1.00;;;;;;4994727;28;20177;-76
2021/04/26 01:22:36;;;;;;;2.85;1.52;;;5.30;1.00;;;;;;4995174;28;20223;-76
2021/04/26 01:25:11;;;;;;;3.58;1.63;;;5.10;1.00;;;;;;4982931;28;20173;-75
2021/04/26 01:28:30;;;;;;;5.38;1.55;;;5.10;1.00;;;;;;4994965;28;20178;-75
2021/04/26 01:31:14;;;;;;;4.95;1.50;;;5.00;1.00;;;;;;4994991;28;20161;-75
2021/04/26 01:33:49;;;;;;;2.45;1.45;;;5.00;1.00;;;;;;4995618;28;20695;-76
2021/04/26 01:36:42;;;;;;;4.93;1.60;;;4.90;1.00;;;;;;4994998;28;20657;-75
2021/04/26 01:39:25;;;;;;;3.90;1.85;;;4.80;1.00;;;;;;4990970;28;20330;-75
2021/04/26 01:42:42;;;;;;;2.80;1.38;;;4.80;1.00;;;;;;4978286;28;20186;-75
2021/04/26 01:45:16;;;;;;;1.80;1.63;;;4.60;1.00;;;;;;4978858;28;20170;-75
2021/04/26 01:47:42;;;;;;;2.75;1.50;;;;;;;;;;4994846;28;20184;-75
2021/04/26 01:50:14;;;;;;;7.60;1.90;;;4.50;1.00;;;;;;4994692;28;20509;-75
2021/04/26 01:53:00;;;;;;;3.28;1.73;;;4.50;1.00;;;;;;4996322;28;20195;-75
2021/04/26 01:55:31;;;;;;;4.30;1.63;;;4.40;1.00;;;;;;5036267;28;20163;-75
2021/04/26 01:58:07;;;;;;;1.77;1.30;;;4.40;1.00;;;;;;5056028;28;20245;-76
2021/04/26 02:00:33;;;;;;;3.90;1.52;;;;;;;;;;5055686;28;20183;-75
2021/04/26 02:03:02;;;;;;;2.55;1.50;;;4.20;1.00;;;;;;5056363;28;20239;-75
2021/04/26 02:05:52;;;;;;;1.83;1.20;;;4.20;1.00;;;;;;5056188;28;20156;-75
2021/04/26 02:08:38;;;;;;;3.90;1.52;;;;;;;;;;5037670;28;20168;-75
2021/04/26 02:11:13;;;;;;;2.80;1.77;;;;;;;;;;5035808;28;20188;-75
2021/04/26 02:13:39;;;;;;;2.40;1.35;;;4.00;1.00;;;;;;5055205;28;20205;-75
2021/04/26 02:16:12;;;;;;;6.82;2.25;;;;;;;;;;5055391;28;20229;-75
2021/04/26 02:19:12;;;;;;;4.93;1.67;;;3.90;1.00;;;;;;5056173;28;20214;-75
2021/04/26 02:21:40;;;;;;;2.72;1.80;;;3.80;1.00;;;;;;5044938;28;20202;-75
2021/04/26 02:24:30;;;;;;;4.05;1.60;;;3.80;1.00;;;;;;5055347;28;20191;-75
2021/04/26 02:27:12;;;;;;;5.80;1.70;;;;;;;;;;5047627;28;20473;-75
2021/04/26 02:29:49;;;;;;;6.15;1.70;;;;;;;;;;5048836;28;20546;-76
2021/04/26 02:32:23;;;;;;;3.85;1.60;;;3.70;1.00;;;;;;5054949;28;20156;-75
2021/04/26 02:34:52;;;;;;;2.83;1.00;;;3.60;1.00;;;;;;5055698;28;20170;-75
2021/04/26 02:37:51;;;;;;;3.28;1.30;;;3.60;1.00;;;;;;5054978;28;20152;-76
2021/04/26 02:40:25;;;;;;;2.65;1.30;;;;;;;;;;5049783;28;20206;-75
2021/04/26 02:42:55;;;;;;;3.05;1.48;;;3.50;1.00;;;;;;5048790;28;20173;-75
2021/04/26 02:45:30;;;;;;;2.63;1.02;;;;;;;;;;5050307;28;20168;-75
2021/04/26 02:47:56;;;;;;;2.60;1.20;;;3.40;1.00;;;;;;5054496;28;20274;-76
2021/04/26 02:50:29;;;;;;;1.95;1.13;;;3.30;1.00;;;;;;5054776;28;20176;-75
2021/04/26 02:53:07;;;;;;;1.40;1.20;;;3.30;1.00;;;;;;5054913;28;20160;-75
2021/04/26 02:55:44;;;;;;;4.18;1.42;;;3.30;1.00;;;;;;5055262;28;20498;-75
2021/04/26 02:58:11;;;;;;;3.03;1.40;;;3.20;1.00;;;;;;5043179;28;20168;-75
2021/04/26 03:00:37;;;;;;;3.30;1.80;;;;;;;;;;5054758;28;20199;-75
2021/04/26 03:03:14;;;;;;;6.75;1.55;;;3.20;1.00;;;;;;5054597;28;20179;-75
2021/04/26 03:06:13;;;;;;;6.88;1.80;;;3.10;1.00;;;;;;5054657;28;20171;-75
2021/04/26 03:09:00;;;;;;;4.55;1.83;;;3.00;1.00;;;;;;5054315;28;20163;-75
2021/04/26 03:11:44;;;;;;;2.63;1.35;;;3.00;1.00;;;;;;5054977;28;20259;-76
2021/04/26 03:14:13;;;;;;;7.38;1.52;;;3.00;1.00;;;;;;5046275;28;20214;-75
2021/04/26 03:16:39;;;;;;;3.28;1.70;;;;;;;;;;5039134;28;20202;-75
2021/04/26 03:19:13;;;;;;;1.20;1.10;;;;;;;;;;5054535;28;20167;-75
2021/04/26 03:21:44;;;;;;;4.40;1.80;;;2.90;1.00;;;;;;5053893;28;20199;-76
2021/04/26 03:24:10;;;;;;;5.00;2.08;;;;;;;;;;5052259;28;20179;-76
2021/04/26 03:26:44;;;;;;;6.80;1.77;;;;;;;;;;5034576;28;20172;-76
2021/04/26 03:29:26;;;;;;;14.20;1.60;;;2.80;1.00;;;;;;5034107;28;20169;-76
2021/04/26 03:31:55;;;;;;;4.70;1.65;;;;;;;;;;5034426;28;20620;-76
2021/04/26 03:35:12;;;;;;;2.30;1.90;;;2.70;1.00;;;;;;5035023;28;20160;-75
2021/04/26 03:37:45;;;;;;;6.22;2.58;;;2.70;1.00;;;;;;5041199;28;20166;-75
2021/04/26 03:40:36;;;;;;;4.82;2.47;;;2.70;1.00;;;;;;5054353;28;20278;-75
2021/04/26 03:43:07;;;;;;;8.57;1.60;;;;;;;;;;5053784;28;20156;-76
2021/04/26 03:45:43;;;;;;;2.25;1.65;;;;;;;;;;5053872;28;20171;-76
2021/04/26 03:48:09;;;;;;;3.47;1.90;;;;;;;;;;5033829;28;20187;-76
2021/04/26 03:50:43;;;;;;;5.10;1.63;;;;;;;;;;5036073;28;20215;-75
2021/04/26 03:53:09;;;;;;;2.50;1.58;;;;;;;;;;5053739;28;20192;-75
2021/04/26 03:55:43;;;;;;;2.25;1.35;;;;;;;;;;5053881;28;20202;-75
2021/04/26 03:58:13;;;;;;;5.63;1.90;;;;;;;;;;5053585;28;20607;-76
2021/04/26 04:00:43;;;;;;;3.17;1.42;;;;;;;;;;5053664;28;20279;-76
2021/04/26 04:03:16;;;;;;;9.38;1.77;;;;;;;;;;5054002;28;20152;-76
2021/04/26 04:05:43;;;;;;;15.13;2.38;;;;;;;;;;5054139;28;20221;-76
2021/04/26 04:08:13;;;;;;;5.32;1.90;;;;;;;;;;5053751;28;20180;-76
2021/04/26 04:10:49;;;;;;;6.47;1.95;;;;;;;;;;5052866;28;20161;-75
2021/04/26 04:13:19;;;;;;;5.65;1.98;;;;;;;;;;5049374;28;20179;-75
2021/04/26 04:16:12;;;;;;;3.42;2.42;;;2.40;1.00;;;;;;5039444;28;20184;-75
2021/04/26 04:18:43;;;;;;;6.45;2.38;;;;;;;;;;5035582;28;20161;-76
2021/04/26 04:21:09;;;;;;;4.25;2.55;;;;;;;;;;5043202;28;20199;-76
2021/04/26 04:23:42;;;;;;;3.35;2.20;;;;;;;;;;5057386;28;20225;-76
2021/04/26 04:26:19;;;;;;;7.32;1.95;;;;;;;;;;5057062;28;20645;-76
2021/04/26 04:29:01;;;;;;;1.58;1.27;;;;;;;;;;5057397;28;20611;-76
2021/04/26 04:31:43;;;;;;;1.30;1.20;;;;;;;;;;5057880;28;20585;-76
2021/04/26 04:34:25;;;;;;;2.10;1.20;;;;;;;;;;5055869;28;20632;-75
2021/04/26 04:37:30;;;;;;;5.30;1.20;;;2.50;1.00;;;;;;5037566;28;20725;-76
2021/04/26 04:40:13;;;;;;;3.28;1.40;;;;;;;;;;5037458;28;20184;-76
2021/04/26 04:42:49;;;;;;;7.40;2.15;;;;;;;;;;5037297;28;20164;-75
2021/04/26 04:48:37;;;;;;;1.20;1.20;;;;;;;;;;5036756;28;20191;-77
2021/04/26 04:51:13;;;;;;;1.75;1.42;;;;;;;;;;5037701;28;20506;-80
2021/04/26 04:54:00;;;;;;;2.40;1.77;;;2.80;1.00;;;;;;5037042;28;20196;-74
2021/04/26 04:56:43;;;;;;;1.83;1.60;;;;;;;;;;5037741;28;20278;-74
2021/04/26 04:59:13;;;;;;;2.35;1.50;;;;;;;;;;5056881;28;20160;-74
2021/04/26 05:01:43;;;;;;;1.52;1.08;;;;;;;;;;5056839;28;20180;-75
2021/04/26 05:04:16;;;;;;;1.95;0.88;;;;;;;;;;5056429;28;20614;-74
2021/04/26 05:06:42;;;;;;;1.35;1.25;;;;;;;;;;5046094;28;20175;-74
2021/04/26 05:09:09;;;;;;;2.25;1.30;;;;;;;;;;5051020;28;20172;-76
2021/04/26 05:11:37;;;;;;;2.10;1.60;;;;;;;;;;5056326;28;20635;-75
2021/04/26 05:14:03;;;;;;;2.35;1.23;;;;;;;;;;5053016;28;20175;-75
2021/04/26 05:16:31;;;;;;;25.33;2.15;;;3.30;1.00;;;;;;5038383;28;20195;-80
2021/04/26 05:18:58;;;;;;;3.90;1.60;;;;;;;;;;5055727;28;20188;-75
2021/04/26 05:21:37;;;;;;;10.05;1.80;;;;;;;;;;5056218;28;20547;-78
2021/04/26 05:24:03;;;;;;;2.53;1.35;;;;;;;;;;5056614;28;20152;-74
2021/04/26 05:26:29;;;;;;;2.00;1.15;;;;;;;;;;5056361;28;20168;-75
2021/04/26 05:28:58;;;;;;;143.05;10.82;;;;;;;;;;5051505;28;20176;-75
2021/04/26 05:31:24;;;;;;;3.97;1.60;;;;;;;;;;5046526;28;20216;-76
2021/04/26 05:34:01;;;;;;;2.38;1.23;;;;;;;;;;5055422;28;20530;-76
2021/04/26 05:36:31;;;;;;;10.95;0.90;;;;;;;;;;5055529;28;20263;-75
2021/04/26 05:39:01;;;;;;;5.03;1.45;;;;;;;;;;5055863;28;20175;-75
2021/04/26 05:41:27;;;;;;;2.17;0.90;;;;;;;;;;5056162;28;20554;-75
2021/04/26 05:43:55;;;;;;;2.35;1.13;;;;;;;;;;5056123;28;20158;-75
2021/04/26 05:46:25;;;;;;;10.48;1.73;;;;;;;;;;5055571;28;20637;-78
2021/04/26 05:48:51;;;;;;;2.97;1.30;;;;;;;;;;5055950;28;20555;-76
2021/04/26 05:51:17;;;;;;;3.20;1.33;;;;;;;;;;5051409;28;20267;-76
2021/04/26 05:53:43;;;;;;;11.55;1.45;;;;;;;;;;5055105;28;20494;-76
2021/04/26 05:56:10;;;;;;;3.85;1.60;;;;;;;;;;5060908;28;20267;-75
2021/04/26 05:58:36;;;;;;;3.63;1.40;;;;;;;;;;5074932;28;20213;-76
2021/04/26 06:01:02;;;;;;;18.23;3.08;;;;;;;;;;5069251;28;20183;-76
2021/04/26 06:03:28;;;;;;;1.88;1.45;;;;;;;;;;5038463;28;20187;-76
2021/04/26 06:05:56;;;;;;;7.30;1.23;;;;;;;;;;5042244;28;20188;-75
2021/04/26 06:08:22;;;;;;;4.65;1.48;;;;;;;;;;5045423;28;20623;-75
2021/04/26 06:10:48;;;;;;;3.73;1.40;;;;;;;;;;5048685;28;20183;-84
2021/04/26 06:13:14;;;;;;;15.27;1.27;;;;;;;;;;5044205;28;20490;-79
2021/04/26 06:15:40;;;;;;;9.07;1.60;;;;;;;;;;5039133;28;20948;-75
2021/04/26 06:18:07;;;;;;;4.43;1.60;;;;;;;;;;5037490;28;20431;-75
2021/04/26 06:20:33;;;;;;;11.90;1.53;;;;;;;;;;5036077;28;20463;-75
2021/04/26 06:23:00;;;;;;;9.20;2.07;;;;;;;;;;5034156;28;20431;-76
2021/04/26 06:25:26;;;;;;;6.32;1.42;;;;;;;;;;5037368;28;20427;-76
2021/04/26 06:27:52;;;;;;;3.80;1.20;;;;;;;;;;5034998;28;20251;-75
2021/04/26 06:30:18;;;;;;;3.53;1.30;;;;;;;;;;5048534;28;20624;-75
2021/04/26 06:32:44;;;;;;;1.70;1.35;;;;;;;;;;5043038;28;20838;-75
2021/04/26 06:35:11;;;;;;;3.57;1.30;;;;;;;;;;5044444;28;20190;-75
2021/04/26 06:37:36;;;;;;;4.33;1.37;;;;;;;;;;5054220;28;20398;-75
2021/04/26 06:40:03;;;;;;;12.40;2.60;;;;;;;;;;5044156;28;20458;-75
2021/04/26 06:42:29;;;;;;;2.87;1.50;;;;;;;;;;5033992;28;20909;-75
2021/04/26 06:44:55;;;;;;;6.50;1.93;;;6.80;1.00;;;;;;5052478;28;20823;-76
2021/04/26 06:47:21;;;;;;;5.57;1.87;;;;;;;;;;5045291;28;20496;-76
2021/04/26 06:49:51;;;;;;;8.83;2.30;;;;;;;;;;5047934;28;20453;-75
2021/04/26 06:52:17;;;;;;;14.73;2.47;;;;;;;;;;5048645;28;20418;-75
2021/04/26 06:54:43;;;;;;;6.67;1.20;;;;;;;;;;5048699;28;20410;-75
2021/04/26 06:57:09;;;;;;;3.30;1.93;;;;;;;;;;5050276;28;20542;-75
2021/04/26 06:59:35;;;;;;;8.77;2.60;;;;;;;;;;5051806;28;20964;-75
2021/04/26 07:02:01;;;;;;;2.23;1.53;;;;;;;;;;5038615;28;20510;-75
2021/04/26 07:04:27;;;;;;;3.40;1.73;;;;;;;;;;5047961;28;20453;-75
2021/04/26 07:06:53;;;;;;;8.63;2.30;;;;;;;;;;5041125;28;20475;-75
2021/04/26 07:09:19;;;;;;;4.83;1.80;;;;;;;;;;5042980;28;20956;-75
2021/04/26 07:11:45;;;;;;;3.27;1.70;;;;;;;;;;5033587;28;20439;-75
2021/04/26 07:14:11;;;;;;;2.87;1.60;;;;;;;;;;5051023;28;20915;-75
2021/04/26 07:16:37;;;;;;;7.20;2.23;;;;;;;;;;5047711;28;20426;-77
2021/04/26 07:19:03;;;;;;;4.40;1.67;;;8.00;1.00;;;;;;5052832;28;20410;-75
2021/04/26 07:21:29;;;;;;;6.80;2.03;;;;;;;;;;5053307;28;20433;-75
2021/04/26 07:23:55;;;;;;;11.63;1.40;;;;;;;;;;5053174;28;20175;-75
2021/04/26 07:26:21;;;;;;;27.67;2.33;;;8.40;1.00;;;;;;5053156;28;20402;-76
2021/04/26 07:28:47;;;;;;;13.73;2.67;;;;;;;;;;5046380;28;20533;-76
2021/04/26 07:31:13;;;;;;;8.33;2.13;;;;;;;;;;5051273;28;20531;-84
2021/04/26 07:33:39;;;;;;;3.63;1.50;;;;;;;;;;5051007;28;20430;-75
2021/04/26 07:36:05;;;;;;;2.67;1.43;;;8.70;1.00;;;;;;5052965;28;20402;-76
2021/04/26 07:38:31;;;;;;;2.23;1.63;;;;;;;;;;5052025;28;20827;-75
2021/04/26 07:40:57;;;;;;;5.70;1.23;;;;;;;;;;5035171;28;20422;-76
2021/04/26 07:43:23;;;;;;;11.13;2.17;;;;;;;;;;5052927;28;20398;-75
2021/04/26 07:45:49;;;;;;;1.40;1.10;;;;;;;;;;5052998;28;20861;-76
2021/04/26 07:48:15;;;;;;;3.43;1.40;;;;;;;;;;5052316;28;20442;-75
2021/04/26 07:50:47;;;;;;;2.17;1.20;;;9.30;1.00;;;;;;5052773;28;20468;-75
2021/04/26 07:53:13;;;;;;;3.50;1.67;;;;;;;;;;5052396;28;20778;-76
2021/04/26 07:55:39;;;;;;;2.13;1.30;;;;;;;;;;5052555;28;20414;-76
2021/04/26 07:58:05;;;;;;;3.63;1.50;;;;;;;;;;5052517;28;20969;-76
2021/04/26 08:00:31;;;;;;;5.13;1.70;;;;;;;;;;5046801;28;20512;-76
2021/04/26 08:02:57;;;;;;;4.33;1.30;;;;;;;;;;5043428;28;20509;-75
2021/04/26 08:05:24;;;;;;;2.87;1.53;;;;;;;;;;5041669;28;20437;-75
2021/04/26 08:07:50;;;;;;;1.40;1.20;;;;;;;;;;5039970;28;20973;-75
2021/04/26 08:10:16;;;;;;;1.80;1.20;;;;;;;;;;5041355;28;20555;-75
2021/04/26 08:12:42;;;;;;;1.80;1.10;;;;;;;;;;5052865;28;20448;-75
2021/04/26 08:15:10;;;;;;;11.60;1.53;;;9.90;1.00;;;;;;5048505;28;20502;-76
2021/04/26 08:17:36;;;;;;;3.53;1.60;;;;;;;;;;5032754;28;20395;-75
2021/04/26 08:20:07;;;;;;;3.53;1.70;;;10.20;1.00;;;;;;5037568;28;20418;-76
2021/04/26 08:22:34;;;;;;;4.27;1.50;;;;;;;;;;5044817;28;20438;-75
2021/04/26 08:25:00;;;;;;;3.50;1.50;;;;;;;;;;5052329;28;20441;-76
2021/04/26 08:27:26;;;;;;;2.37;1.40;;;;;;;;;;5052150;28;20429;-76
2021/04/26 08:29:52;;;;;;;3.33;1.20;;;;;;;;;;5046875;28;20979;-76
2021/04/26 08:32:18;;;;;;;3.10;1.40;;;;;;;;;;5046308;28;20438;-76
2021/04/26 08:34:44;;;;;;;1.53;1.03;;;;;;;;;;5050795;28;20430;-76
2021/04/26 08:37:10;;;;;;;2.13;1.10;;;;;;;;;;5052638;28;20463;-76
2021/04/26 08:39:36;;;;;;;2.20;1.33;;;;;;;;;;5052041;28;20440;-76
2021/04/26 08:42:02;;;;;;;12.47;1.37;;;;;;;;;;5051704;28;20417;-76
2021/04/26 08:44:28;;;;;;;4.70;1.50;;;;;;;;;;5052077;28;20398;-76
2021/04/26 08:46:56;;;;;;;2.83;1.30;;;11.00;1.00;;;;;;5051283;28;20384;-76
2021/04/26 08:49:22;;;;;;;6.07;1.57;;;;;;;;;;5051327;28;20450;-75
2021/04/26 08:51:49;;;;;;;5.23;1.17;;;;;;;;;;5048312;28;20465;-71
2021/04/26 08:54:16;;;;;;;9.13;1.80;;;11.20;1.00;;;;;;5040671;28;20411;-74
2021/04/26 08:56:42;;;;;;;6.67;2.10;;;11.30;1.00;;;;;;5044437;28;20524;-75
2021/04/26 08:59:08;;;;;;;6.83;1.50;;;;;;;;;;5043344;28;20414;-74
2021/04/26 09:01:34;;;;;;;5.67;1.30;;;;;;;;;;5039961;28;20442;-74
2021/04/26 09:04:11;;;;;;;6.17;1.70;;;11.30;1.00;;;;;;5045840;28;20418;-74
2021/04/26 09:07:00;;;;;;;3.70;1.17;;;11.50;1.00;;;;;;5051011;28;20447;-74
2021/04/26 09:09:32;;;;;;;5.90;1.20;;;11.60;1.00;;;;;;5055326;28;20730;-75
2021/04/26 09:11:58;;;;;;;3.20;1.23;;;;;;;;;;5047372;28;20811;-74
2021/04/26 09:14:43;;;;;;;4.57;1.53;;;11.80;1.00;;;;;;5055978;28;20391;-74
2021/04/26 09:17:28;;;;;;;5.37;1.50;;;12.00;1.00;;;;;;5044192;28;20501;-75
2021/04/26 09:20:00;;;;;;;1.90;1.30;;;11.90;1.00;;;;;;5055576;28;20885;-75
2021/04/26 09:22:50;;;;;;;12.83;2.27;;;12.10;1.00;;;;;;5055035;28;20441;-74
2021/04/26 09:25:36;;;;;;;13.10;1.87;;;12.10;1.00;;;;;;5051292;28;20398;-75
2021/04/26 09:28:02;;;;;;;3.07;1.27;;;;;;;;;;5036280;28;20395;-75
2021/04/26 09:30:49;;;;;;;2.60;1.03;;;12.10;1.00;;;;;;5044628;28;20520;-75
2021/04/26 09:33:28;;;;;;;12.40;1.60;;;12.30;1.00;;;;;;5038714;28;20775;-75
2021/04/26 09:36:14;;;;;;;1.67;1.00;;;12.40;1.00;;;;;;5052569;28;20422;-75
2021/04/26 09:38:50;;;;;;;4.60;1.17;;;12.40;1.00;;;;;;5047316;28;20932;-75
2021/04/26 09:41:28;;;;;;;5.03;1.50;;;12.50;1.00;;;;;;5040001;28;20421;-74
2021/04/26 09:44:00;;;;;;;2.53;1.27;;;;;;;;;;5035308;28;20498;-76
2021/04/26 09:46:42;;;;;;;1.80;1.10;;;;;;;;;;5035218;28;20865;-74
2021/04/26 09:49:09;;;;;;;33.53;3.50;;;12.70;1.00;;;;;;5047302;28;20805;-76
2021/04/26 09:51:35;;;;;;;2.90;1.07;;;;;;;;;;5050679;28;20443;-75
2021/04/26 09:54:01;;;;;;;1.80;0.83;;;;;;;;;;5053641;28;20445;-76
2021/04/26 09:56:41;;;;;;;4.97;1.30;;;12.90;1.00;;;;;;5054961;28;20402;-76
2021/04/26 09:59:08;;;;;;;2.67;0.90;;;;;;;;;;5050014;28;20421;-76
2021/04/26 10:01:34;;;;;;;6.40;1.30;;;;;;;;;;5052262;28;20450;-76
2021/04/26 10:04:00;;;;;;;4.00;1.10;;;;;;;;;;5049725;28;20897;-76
2021/04/26 10:06:26;;;;;;;3.30;0.83;;;;;;;;;;5049118;28;20449;-76
2021/04/26 10:08:55;;;;;;;1.53;0.77;;;13.30;1.00;;;;;;5054579;28;20479;-75
2021/04/26 10:11:22;;;;;;;1.57;0.87;;;13.40;1.00;;;;;;5053945;28;20450;-75
2021/04/26 10:13:50;;;;;;;4.00;1.00;;;13.40;1.00;;;;;;5054836;28;20422;-75
2021/04/26 10:16:32;;;;;;;2.30;0.70;;;13.50;1.00;;;;;;5053402;28;20408;-76
2021/04/26 10:19:16;;;;;;;1.33;0.70;;;;;;;;;;5055613;28;20410;-75
2021/04/26 10:21:54;;;;;;;1.07;0.83;;;13.50;1.00;;;;;;5047895;28;20433;-74
2021/04/26 10:24:27;;;;;;;1.73;0.80;;;13.50;1.00;;;;;;5037426;28;20422;-76
2021/04/26 10:27:28;;;;;;;1.73;0.70;;;13.70;1.00;;;;;;5035287;28;20395;-78
2021/04/26 10:30:20;;;;;;;5.90;0.80;;;14.00;1.00;;;;;;5049672;28;20413;-78
2021/04/26 10:33:06;;;;;;;1.23;0.80;;;14.10;1.00;;;;;;5050154;28;20425;-78
2021/04/26 10:35:58;;;;;;;3.80;1.23;;;14.10;1.00;;;;;;5053137;28;20444;-76
2021/04/26 10:38:40;;;;;;;10.77;1.33;;;14.20;1.00;;;;;;5041719;28;20444;-75
2021/04/26 10:41:08;;;;;;;3.07;0.97;;;14.30;1.00;;;;;;5044930;28;20449;-74
2021/04/26 10:43:51;;;;;;;2.63;0.80;;;14.40;1.00;;;;;;5044054;28;20431;-75
2021/04/26 10:46:42;;;;;;;4.20;1.20;;;;;;;;;;5054669;28;20985;-75
2021/04/26 10:49:15;;;;;;;3.80;0.77;;;14.30;1.00;;;;;;5046986;28;20433;-75
2021/04/26 10:51:41;;;;;;;4.13;1.03;;;14.40;1.00;;;;;;5053653;28;20843;-75
2021/04/26 10:54:13;;;;;;;3.67;1.10;;;;;;;;;;5035181;28;20499;-77
2021/04/26 10:56:43;;;;;;;5.60;1.20;;;;;;;;;;5023084;28;20730;-75
2021/04/26 10:59:18;;;;;;;9.20;1.33;;;;;;;;;;5054179;28;20430;-76
2021/04/26 11:02:06;;;;;;;4.10;0.80;;;14.40;1.00;;;;;;5054594;28;20420;-76
2021/04/26 11:04:37;;;;;;;1.53;0.80;;;;;;;;;;5054165;28;20442;-78
2021/04/26 11:07:16;;;;;;;3.03;1.13;;;14.20;1.00;;;;;;5054664;28;20394;-77
2021/04/26 11:09:42;;;;;;;4.10;1.07;;;;;;;;;;5054408;28;20410;-75
2021/04/26 11:12:31;;;;;;;1.90;0.93;;;14.40;1.00;;;;;;5054539;28;20845;-75
2021/04/26 11:15:20;;;;;;;2.27;0.80;;;14.50;1.00;;;;;;5054042;28;20719;-75
2021/04/26 11:18:01;;;;;;;1.53;0.80;;;;;;;;;;5054433;28;20399;-75
2021/04/26 11:20:39;;;;;;;2.57;0.90;;;14.70;1.00;;;;;;5043315;28;20433;-75
2021/04/26 11:23:46;;;;;;;2.70;0.90;;;14.70;1.00;;;;;;5049905;28;20857;-75
2021/04/26 11:26:13;;;;;;;1.70;0.73;;;;;;;;;;5035271;28;20419;-76
2021/04/26 11:29:13;;;;;;;5.73;1.13;;;14.60;1.00;;;;;;5044755;28;20422;-75
2021/04/26 11:31:42;;;;;;;4.23;0.80;;;;;;;;;;5053862;28;20387;-75
2021/04/26 11:34:11;;;;;;;2.97;0.83;;;;;;;;;;5036081;28;20455;-75
2021/04/26 11:37:16;;;;;;;6.97;1.53;;;14.80;1.00;;;;;;5053303;28;20414;-75
2021/04/26 11:39:43;;;;;;;1.47;0.77;;;;;;;;;;4991063;28;20833;-77
2021/04/26 11:42:30;;;;;;;2.40;0.93;;;14.70;1.00;;;;;;4975012;28;20785;-77
2021/04/26 11:45:08;;;;;;;2.93;0.90;;;;;;;;;;4973482;28;20381;-77
2021/04/26 11:50:43;;;;;;;8.80;1.13;;;;;;;;;;4980722;28;20447;-77
2021/04/26 11:53:09;;;;;;;2.83;0.93;;;;;;;;;;4976397;28;20410;-76
2021/04/26 11:55:49;;;;;;;4.37;0.93;;;;;;;;;;4973257;28;20385;-77
2021/04/26 11:58:31;;;;;;;1.60;0.80;;;;;;;;;;4973109;28;20707;-77
2021/04/26 12:01:14;;;;;;;1.83;1.10;;;;;;;;;;4973255;28;20457;-76
2021/04/26 12:03:56;;;;;;;6.30;1.10;;;15.10;1.00;;;;;;4982794;28;20823;-76
2021/04/26 12:06:23;;;;;;;4.00;1.00;;;;;;;;;;4976030;28;20471;-75
2021/04/26 12:08:57;;;;;;;2.60;0.90;;;;;;;;;;4991946;28;20794;-76
2021/04/26 12:11:31;;;;;;;2.43;0.93;;;;;;;;;;4992453;28;20836;-76
2021/04/26 12:14:07;;;;;;;1.60;0.70;;;;;;;;;;5018691;28;20382;-76
2021/04/26 12:16:34;;;;;;;7.17;0.97;;;;;;;;;;5050286;28;20472;-76
2021/04/26 12:19:02;;;;;;;13.53;1.90;;;;;;;;;;5041891;28;20441;-76
2021/04/26 12:21:28;;;;;;;3.90;0.83;;;;;;;;;;5045911;28;20827;-75
2021/04/26 12:23:54;;;;;;;2.90;0.90;;;;;;;;;;5042056;28;20378;-77
2021/04/26 12:26:20;;;;;;;5.90;1.10;;;;;;;;;;5033628;28;20389;-76
2021/04/26 12:29:38;;;;;;;4.57;0.83;;;15.50;1.00;;;;;;5050354;28;20418;-76
2021/04/26 12:32:21;;;;;;;17.27;2.10;;;15.60;1.00;;;;;;4953254;28;20566;-76
2021/04/26 12:35:02;;;;;;;2.90;0.80;;;15.60;1.00;;;;;;4964385;28;20392;-79
2021/04/26 12:41:18;;;;;;;1.83;1.00;;;15.60;1.00;;;;;;4976114;28;20531;-78
2021/04/26 12:47:46;;;;;;;1.57;0.90;;;15.90;1.00;;;;;;4963452;28;20405;-76
2021/04/26 12:50:30;;;;;;;2.70;1.00;;;15.90;1.00;;;;;;4937703;29;20417;-75
2021/04/26 12:53:20;;;;;;;3.97;1.33;;;15.90;1.00;;;;;;4925330;29;20926;-75
2021/04/26 12:56:17;;;;;;;1.20;0.70;;;15.80;1.00;;;;;;4938175;29;20520;-75
2021/04/26 12:58:43;;;;;;;1.17;0.70;;;;;;;;;;4937473;29;20427;-75
2021/04/26 13:01:21;;;;;;;3.97;1.00;;;;;;;;;;4937600;29;20473;-76
2021/04/26 13:03:51;;;;;;;8.43;1.07;;;16.00;1.00;;;;;;4937641;29;20424;-76
2021/04/26 13:06:24;;;;;;;1.20;0.80;;;;;;;;;;4937595;29;20392;-76
2021/04/26 13:08:57;;;;;;;1.33;0.90;;;;;;;;;;4994460;28;20469;-75
2021/04/26 13:11:56;;;;;;;4.73;1.10;;;16.60;1.00;;;;;;4975757;28;20498;-76
2021/04/26 13:14:23;;;;;;;5.10;1.20;;;16.70;1.00;;;;;;4975744;28;20390;-75
2021/04/26 13:16:58;;;;;;;1.93;1.20;;;;;;;;;;4975851;28;20377;-76
2021/04/26 13:19:32;;;;;;;3.17;0.77;;;16.70;1.00;;;;;;4990964;28;20957;-76
2021/04/26 13:22:01;;;;;;;80.97;5.83;;;;;;;;;;4997320;28;20450;-81
2021/04/26 13:24:29;;;;;;;24.40;2.90;;;16.80;1.00;;;;;;4991569;28;20437;-80
2021/04/26 13:27:03;;;;;;;3.73;1.10;;;;;;;;;;5045635;28;20735;-80
2021/04/26 13:29:31;;;;;;;2.60;1.00;;;16.80;1.00;;;;;;5029205;28;20425;-79
2021/04/26 13:31:58;;;;;;;7.47;1.80;;;;;;;;;;5054704;28;20381;-79
2021/04/26 13:34:25;;;;;;;2.77;1.00;;;17.00;1.00;;;;;;5037980;28;20418;-81
2021/04/26 13:36:51;;;;;;;2.20;1.10;;;;;;;;;;5050150;28;20940;-81
2021/04/26 13:39:18;;;;;;;3.70;0.87;;;;;;;;;;5036078;28;20396;-80
2021/04/26 13:41:45;;;;;;;6.07;1.33;;;17.10;1.00;;;;;;5045999;28;20490;-80
2021/04/26 13:44:11;;;;;;;1.63;1.00;;;;;;;;;;5054663;28;20404;-79
2021/04/26 13:46:38;;;;;;;3.03;1.17;;;;;;;;;;5054914;28;20406;-79
2021/04/26 13:49:04;;;;;;;12.83;2.67;;;17.10;1.00;;;;;;5035920;28;20540;-79
2021/04/26 13:51:30;;;;;;;3.97;0.87;;;;;;;;;;5053831;28;20401;-79
2021/04/26 13:53:57;;;;;;;1.47;0.90;;;;;;;;;;5047387;28;20423;-79
2021/04/26 13:56:23;;;;;;;3.23;1.00;;;;;;;;;;5045655;28;20901;-79
2021/04/26 13:58:49;;;;;;;1.97;1.07;;;;;;;;;;5043209;28;20398;-80
2021/04/26 14:01:15;;;;;;;13.73;1.20;;;;;;;;;;5030810;28;20467;-80
2021/04/26 14:03:43;;;;;;;4.40;1.07;;;;;;;;;;5054724;28;20426;-80
2021/04/26 14:06:09;;;;;;;3.23;1.10;;;;;;;;;;5035041;28;20762;-81
2021/04/26 14:08:35;;;;;;;1.73;0.90;;;;;;;;;;5034923;28;20382;-81
2021/04/26 14:11:01;;;;;;;1.17;0.93;;;;;;;;;;5044337;28;20425;-80
2021/04/26 14:13:27;;;;;;;2.90;1.30;;;;;;;;;;5036926;28;20404;-79
2021/04/26 14:15:54;;;;;;;1.20;1.10;;;;;;;;;;5038134;28;20831;-79
2021/04/26 14:18:25;;;;;;;2.30;0.97;;;;;;;;;;5052407;28;20457;-79
2021/04/26 14:20:51;;;;;;;4.57;1.30;;;;;;;;;;5040067;28;20422;-80
2021/04/26 14:23:20;;;;;;;4.30;1.40;;;;;;;;;;5047639;28;20472;-80
2021/04/26 14:25:46;;;;;;;1.83;1.03;;;;;;;;;;5051763;28;20441;-80
2021/04/26 14:28:13;;;;;;;2.50;1.00;;;17.60;1.00;;;;;;5042127;28;20881;-79
2021/04/26 14:30:39;;;;;;;2.00;1.07;;;17.60;1.00;;;;;;5034442;28;20567;-81
2021/04/26 14:33:07;;;;;;;3.33;1.17;;;17.40;1.00;;;;;;5050048;28;20448;-77
2021/04/26 14:36:18;;;;;;;1.17;0.87;;;17.20;1.00;;;;;;5043542;28;20460;-77
2021/04/26 14:38:44;;;;;;;1.67;0.90;;;17.10;1.00;;;;;;5046327;28;20498;-76
2021/04/26 14:41:13;;;;;;;2.57;1.23;;;;;;;;;;5052807;28;20557;-75
2021/04/26 14:43:43;;;;;;;5.03;1.57;;;;;;;;;;5037408;28;20597;-76
2021/04/26 14:46:09;;;;;;;1.70;1.10;;;;;;;;;;5050633;28;20406;-76
2021/04/26 14:48:35;;;;;;;16.80;2.77;;;;;;;;;;5048182;28;20489;-76
2021/04/26 14:51:02;;;;;;;6.67;1.13;;;19.30;1.00;;;;;;5053144;28;20453;-76